Robert Fulton — WBS7886 — position and weather

sailwx.info

Track history (hours):
 
Tides and Currents Weather Stations Pressure Air Temp Water Temp Dewpoint Dewpoint Depression Visibility Wind Speed Wind Dir Waves Ship Positions

Robert Fulton

Owner: PORT IMPERIAL FERRY CORP, WEEHAWKEN, NJ. More information available from US FCC via Universal Licensing System and Coast Guard Vessel Documentation Center.

Last reported at 2018-Aug-19 15:00 UTC. Time now 2018-Aug-19 15:20 UTC.
Position N 40°46' W 074°01'.

Length 28 m; draft 2 m.

Type: Passenger vessel. MMSI: 366702000.

Date/timePositionNaut miles runAvg speedWind from/ knotsBaromVisibWave heightAir tempDewpointWater temp
2018-Aug-19 15:00N 40°46' W 074°01'0 0.0
2018-Aug-19 01:54N 40°46' W 074°01'410.4
2018-Aug-19 01:30N 40°42' W 074°01'3 5.4
2018-Aug-19 01:00N 40°43' W 073°58'2 3.6
2018-Aug-19 00:30N 40°45' W 073°57'2 4.8
2018-Aug-19 00:00N 40°43' W 073°58'2 3.1
2018-Aug-18 23:30N 40°42' W 074°00'3 5.1
2018-Aug-18 23:00N 40°44' W 073°58'1 1.4
2018-Aug-18 22:30N 40°45' W 073°58'2 4.9
2018-Aug-18 22:00N 40°42' W 073°59'1 1.8
2018-Aug-18 21:30N 40°42' W 074°00'2 4.1
2018-Aug-18 21:01N 40°43' W 073°58'2 3.3
2018-Aug-18 20:30N 40°45' W 073°57'3 5.4
2018-Aug-18 20:00N 40°42' W 073°59'1 2.3
2018-Aug-18 19:31N 40°42' W 074°00'2 4.2
2018-Aug-18 19:00N 40°43' W 073°58'2 3.4
2018-Aug-18 18:30N 40°45' W 073°57'3 5.2
2018-Aug-18 18:01N 40°42' W 073°59'1 2.7
2018-Aug-18 17:30N 40°42' W 074°00'2 4.3
2018-Aug-18 17:00N 40°43' W 073°58'2 3.4
2018-Aug-18 16:30N 40°45' W 073°57'3 5.2
2018-Aug-18 16:00N 40°42' W 073°59'2 4.3
2018-Aug-18 15:31N 40°42' W 074°01'4 0.3
2018-Aug-17 23:54N 40°46' W 074°01'0 0.7
2018-Aug-17 23:27N 40°47' W 074°00'1 1.7
2018-Aug-17 22:57N 40°46' W 074°00'1 1.1
2018-Aug-17 22:26N 40°46' W 074°00'1 1.3
2018-Aug-17 21:57N 40°46' W 074°00'1 1.8
2018-Aug-17 21:27N 40°47' W 074°01'1 1.3
2018-Aug-17 20:55N 40°46' W 074°00'1 1.4
2018-Aug-17 20:25N 40°47' W 074°00'0 0.0
2018-Aug-17 13:46N 40°47' W 074°01'0 0.1
2018-Aug-17 13:25N 40°47' W 074°01'1 1.8
2018-Aug-17 12:56N 40°46' W 074°00'1 1.8
2018-Aug-17 12:27N 40°47' W 074°01'1 1.4
2018-Aug-17 11:55N 40°46' W 074°00'1 1.4
2018-Aug-17 11:26N 40°47' W 074°00'1 1.3
2018-Aug-17 10:46N 40°46' W 074°00'0 0.1
2018-Aug-17 10:26N 40°46' W 074°00'1 0.1
2018-Aug-16 23:46N 40°47' W 074°01'0 0.1
2018-Aug-16 23:26N 40°46' W 074°00'1 1.5
2018-Aug-16 22:55N 40°46' W 074°00'1 1.7
2018-Aug-16 22:27N 40°47' W 074°01'1 1.0
2018-Aug-16 21:54N 40°46' W 074°00'1 1.1
2018-Aug-16 21:25N 40°47' W 074°01'1 1.5
2018-Aug-16 20:55N 40°46' W 074°00'1 1.4
2018-Aug-16 20:25N 40°47' W 074°00'0 0.0
2018-Aug-16 13:46N 40°46' W 074°00'0 0.7
2018-Aug-16 13:24N 40°46' W 074°00'0 0.8
2018-Aug-16 12:55N 40°46' W 074°00'1 1.4
2018-Aug-16 12:26N 40°46' W 074°00'1 1.9
2018-Aug-16 12:00N 40°46' W 074°00'1 1.5
2018-Aug-16 11:26N 40°46' W 074°00'1 1.3
2018-Aug-16 10:47N 40°46' W 074°00'0 0.0
2018-Aug-16 10:29N 40°46' W 074°00'1 1.3
2018-Aug-16 09:53N 40°46' W 074°00'0 0.0
2018-Aug-15 23:54N 40°46' W 074°01'0 0.7
2018-Aug-15 23:24N 40°46' W 074°00'0 0.9
2018-Aug-15 22:56N 40°46' W 074°00'1 1.7
2018-Aug-15 22:26N 40°47' W 074°01'0 0.9
2018-Aug-15 21:54N 40°46' W 074°00'0 1.0
2018-Aug-15 21:27N 40°47' W 074°01'1 1.6
2018-Aug-15 20:56N 40°46' W 074°00'1 1.7
2018-Aug-15 20:26N 40°47' W 074°00'0 0.1
2018-Aug-15 13:44N 40°46' W 074°00'0 0.8
2018-Aug-15 13:15N 40°46' W 074°01'0 0.4
2018-Aug-15 12:43N 40°46' W 074°00'0 1.8
2018-Aug-15 12:26N 40°46' W 074°00'0 0.9
2018-Aug-15 11:54N 40°46' W 074°00'0 0.8
2018-Aug-15 11:25N 40°46' W 074°00'0 0.6
2018-Aug-15 10:44N 40°46' W 074°00'1 1.2
2018-Aug-15 10:16N 40°46' W 074°00'0 0.2
2018-Aug-15 09:58N 40°47' W 074°00'0 0.0
2018-Aug-14 13:45N 40°46' W 074°00'0 0.1
2018-Aug-14 13:26N 40°46' W 074°00'1 1.2
2018-Aug-14 12:56N 40°46' W 074°00'1 1.3
2018-Aug-14 12:27N 40°47' W 074°01'1 2.0
2018-Aug-14 11:59N 40°46' W 074°00'1 1.8
2018-Aug-14 11:27N 40°47' W 074°01'1 1.8
2018-Aug-14 10:55N 40°46' W 074°00'0 0.1
2018-Aug-14 10:26N 40°46' W 074°00'1 1.9
2018-Aug-14 09:58N 40°47' W 074°00'0 0.7
2018-Aug-14 09:30N 40°46' W 074°01'0 0.0
2018-Aug-14 08:55N 40°46' W 074°01'0 0.0
2018-Aug-14 08:30N 40°46' W 074°01'0 0.0
2018-Aug-13 01:50N 40°46' W 074°01'413.0
2018-Aug-13 01:30N 40°42' W 074°01'2 4.9
2018-Aug-13 01:00N 40°43' W 073°58'2 3.2
2018-Aug-13 00:30N 40°45' W 073°57'3 5.6
2018-Aug-13 00:00N 40°42' W 073°59'1 2.3
2018-Aug-12 23:31N 40°42' W 074°00'2 4.3
2018-Aug-12 23:01N 40°43' W 073°58'2 3.3
2018-Aug-12 22:30N 40°45' W 073°57'2 4.9
2018-Aug-12 22:00N 40°43' W 073°58'1 2.9
2018-Aug-12 21:31N 40°42' W 074°00'2 4.4
2018-Aug-12 20:56N 40°44' W 073°58'0 0.4
2018-Aug-12 20:19N 40°44' W 073°58'2 5.0
2018-Aug-12 19:55N 40°42' W 073°60'0 0.0
2018-Aug-12 19:23N 40°42' W 073°60'2 4.9
2018-Aug-12 18:56N 40°44' W 073°58'0 0.6
2018-Aug-12 18:25N 40°44' W 073°58'2 4.6
2018-Aug-12 18:00N 40°42' W 073°60'0 0.9
2018-Aug-12 17:28N 40°42' W 074°00'2 4.5
2018-Aug-12 16:59N 40°43' W 073°58'1 1.0
2018-Aug-12 16:25N 40°44' W 073°58'2 4.3
2018-Aug-12 16:00N 40°42' W 073°59'2 3.8
2018-Aug-12 15:30N 40°43' W 074°01'3 0.2
2018-Aug-12 01:43N 40°46' W 074°01'416.5
2018-Aug-12 01:30N 40°42' W 074°01'3 4.8
2018-Aug-12 00:56N 40°43' W 073°58'1 3.2
2018-Aug-12 00:30N 40°45' W 073°58'2 4.6
2018-Aug-12 00:00N 40°43' W 073°58'2 3.2
2018-Aug-11 23:30N 40°42' W 074°00'2 4.3
2018-Aug-11 23:00N 40°43' W 073°58'2 3.2
2018-Aug-11 22:30N 40°45' W 073°57'3 5.4
2018-Aug-11 22:00N 40°42' W 073°59'1 2.5
2018-Aug-11 21:31N 40°42' W 074°00'2 4.2
2018-Aug-11 21:00N 40°43' W 073°58'2 3.1
2018-Aug-11 20:30N 40°45' W 073°58'3 5.4
2018-Aug-11 20:01N 40°42' W 073°59'1 2.3
2018-Aug-11 19:30N 40°42' W 074°00'2 4.2
2018-Aug-11 19:00N 40°43' W 073°58'2 3.4
2018-Aug-11 18:30N 40°45' W 073°57'3 5.5
2018-Aug-11 18:00N 40°42' W 073°59'1 1.7
2018-Aug-11 17:31N 40°42' W 074°00'2 4.1
2018-Aug-11 17:00N 40°43' W 073°58'1 2.9
2018-Aug-11 16:30N 40°45' W 073°58'3 6.0
2018-Aug-11 16:01N 40°42' W 073°60'2 4.4
2018-Aug-11 15:30N 40°44' W 074°01'2 0.1
2018-Aug-10 13:41N 40°46' W 074°00'1 2.8
2018-Aug-10 13:26N 40°47' W 074°01'1 1.6
2018-Aug-10 12:56N 40°46' W 074°00'1 1.3
2018-Aug-10 12:25N 40°46' W 074°00'1 1.3
2018-Aug-10 11:56N 40°46' W 074°00'1 1.6
2018-Aug-10 11:27N 40°47' W 074°01'1 2.0
2018-Aug-10 10:59N 40°46' W 074°00'0 0.0
2018-Aug-10 10:26N 40°46' W 074°00'1 0.1
2018-Aug-09 23:45N 40°47' W 074°01'0 0.0
2018-Aug-09 23:26N 40°47' W 074°00'1 2.1
2018-Aug-09 23:01N 40°46' W 074°00'1 1.6
2018-Aug-09 22:26N 40°47' W 074°01'1 2.1
2018-Aug-09 21:59N 40°46' W 074°00'1 1.7
2018-Aug-09 21:27N 40°47' W 074°00'1 2.0
2018-Aug-09 20:59N 40°46' W 074°00'1 1.8
2018-Aug-09 20:28N 40°47' W 074°01'  
Track history (hours):
 
Tides and Currents Weather Stations Pressure Air Temp Water Temp Dewpoint Dewpoint Depression Visibility Wind Speed Wind Dir Waves Ship Positions

Robert Fulton

Owner: PORT IMPERIAL FERRY CORP, WEEHAWKEN, NJ. More information available from US FCC via Universal Licensing System and Coast Guard Vessel Documentation Center.

Last reported at 2018-Aug-19 15:00 UTC. Time now 2018-Aug-19 15:20 UTC.
Position N 40°46' W 074°01'.

Length 28 m; draft 2 m.

Type: Passenger vessel. MMSI: 366702000.

Date/timePositionNaut miles runAvg speedWind from/ knotsBaromVisibWave heightAir tempDewpointWater temp
2018-Aug-19 15:00N 40°46' W 074°01'0 0.0
2018-Aug-19 01:54N 40°46' W 074°01'410.4
2018-Aug-19 01:30N 40°42' W 074°01'3 5.4
2018-Aug-19 01:00N 40°43' W 073°58'2 3.6
2018-Aug-19 00:30N 40°45' W 073°57'2 4.8
2018-Aug-19 00:00N 40°43' W 073°58'2 3.1
2018-Aug-18 23:30N 40°42' W 074°00'3 5.1
2018-Aug-18 23:00N 40°44' W 073°58'1 1.4
2018-Aug-18 22:30N 40°45' W 073°58'2 4.9
2018-Aug-18 22:00N 40°42' W 073°59'1 1.8
2018-Aug-18 21:30N 40°42' W 074°00'2 4.1
2018-Aug-18 21:01N 40°43' W 073°58'2 3.3
2018-Aug-18 20:30N 40°45' W 073°57'3 5.4
2018-Aug-18 20:00N 40°42' W 073°59'1 2.3
2018-Aug-18 19:31N 40°42' W 074°00'2 4.2
2018-Aug-18 19:00N 40°43' W 073°58'2 3.4
2018-Aug-18 18:30N 40°45' W 073°57'3 5.2
2018-Aug-18 18:01N 40°42' W 073°59'1 2.7
2018-Aug-18 17:30N 40°42' W 074°00'2 4.3
2018-Aug-18 17:00N 40°43' W 073°58'2 3.4
2018-Aug-18 16:30N 40°45' W 073°57'3 5.2
2018-Aug-18 16:00N 40°42' W 073°59'2 4.3
2018-Aug-18 15:31N 40°42' W 074°01'4 0.3
2018-Aug-17 23:54N 40°46' W 074°01'0 0.7
2018-Aug-17 23:27N 40°47' W 074°00'1 1.7
2018-Aug-17 22:57N 40°46' W 074°00'1 1.1
2018-Aug-17 22:26N 40°46' W 074°00'1 1.3
2018-Aug-17 21:57N 40°46' W 074°00'1 1.8
2018-Aug-17 21:27N 40°47' W 074°01'1 1.3
2018-Aug-17 20:55N 40°46' W 074°00'1 1.4
2018-Aug-17 20:25N 40°47' W 074°00'0 0.0
2018-Aug-17 13:46N 40°47' W 074°01'0 0.1
2018-Aug-17 13:25N 40°47' W 074°01'1 1.8
2018-Aug-17 12:56N 40°46' W 074°00'1 1.8
2018-Aug-17 12:27N 40°47' W 074°01'1 1.4
2018-Aug-17 11:55N 40°46' W 074°00'1 1.4
2018-Aug-17 11:26N 40°47' W 074°00'1 1.3
2018-Aug-17 10:46N 40°46' W 074°00'0 0.1
2018-Aug-17 10:26N 40°46' W 074°00'1 0.1
2018-Aug-16 23:46N 40°47' W 074°01'0 0.1
2018-Aug-16 23:26N 40°46' W 074°00'1 1.5
2018-Aug-16 22:55N 40°46' W 074°00'1 1.7
2018-Aug-16 22:27N 40°47' W 074°01'1 1.0
2018-Aug-16 21:54N 40°46' W 074°00'1 1.1
2018-Aug-16 21:25N 40°47' W 074°01'1 1.5
2018-Aug-16 20:55N 40°46' W 074°00'1 1.4
2018-Aug-16 20:25N 40°47' W 074°00'0 0.0
2018-Aug-16 13:46N 40°46' W 074°00'0 0.7
2018-Aug-16 13:24N 40°46' W 074°00'0 0.8
2018-Aug-16 12:55N 40°46' W 074°00'1 1.4
2018-Aug-16 12:26N 40°46' W 074°00'1 1.9
2018-Aug-16 12:00N 40°46' W 074°00'1 1.5
2018-Aug-16 11:26N 40°46' W 074°00'1 1.3
2018-Aug-16 10:47N 40°46' W 074°00'0 0.0
2018-Aug-16 10:29N 40°46' W 074°00'1 1.3
2018-Aug-16 09:53N 40°46' W 074°00'0 0.0
2018-Aug-15 23:54N 40°46' W 074°01'0 0.7
2018-Aug-15 23:24N 40°46' W 074°00'0 0.9
2018-Aug-15 22:56N 40°46' W 074°00'1 1.7
2018-Aug-15 22:26N 40°47' W 074°01'0 0.9
2018-Aug-15 21:54N 40°46' W 074°00'0 1.0
2018-Aug-15 21:27N 40°47' W 074°01'1 1.6
2018-Aug-15 20:56N 40°46' W 074°00'1 1.7
2018-Aug-15 20:26N 40°47' W 074°00'0 0.1
2018-Aug-15 13:44N 40°46' W 074°00'0 0.8
2018-Aug-15 13:15N 40°46' W 074°01'0 0.4
2018-Aug-15 12:43N 40°46' W 074°00'0 1.8
2018-Aug-15 12:26N 40°46' W 074°00'0 0.9
2018-Aug-15 11:54N 40°46' W 074°00'0 0.8
2018-Aug-15 11:25N 40°46' W 074°00'0 0.6
2018-Aug-15 10:44N 40°46' W 074°00'1 1.2
2018-Aug-15 10:16N 40°46' W 074°00'0 0.2
2018-Aug-15 09:58N 40°47' W 074°00'0 0.0
2018-Aug-14 13:45N 40°46' W 074°00'0 0.1
2018-Aug-14 13:26N 40°46' W 074°00'1 1.2
2018-Aug-14 12:56N 40°46' W 074°00'1 1.3
2018-Aug-14 12:27N 40°47' W 074°01'1 2.0
2018-Aug-14 11:59N 40°46' W 074°00'1 1.8
2018-Aug-14 11:27N 40°47' W 074°01'1 1.8
2018-Aug-14 10:55N 40°46' W 074°00'0 0.1
2018-Aug-14 10:26N 40°46' W 074°00'1 1.9
2018-Aug-14 09:58N 40°47' W 074°00'0 0.7
2018-Aug-14 09:30N 40°46' W 074°01'0 0.0
2018-Aug-14 08:55N 40°46' W 074°01'0 0.0
2018-Aug-14 08:30N 40°46' W 074°01'0 0.0
2018-Aug-13 01:50N 40°46' W 074°01'413.0
2018-Aug-13 01:30N 40°42' W 074°01'2 4.9
2018-Aug-13 01:00N 40°43' W 073°58'2 3.2
2018-Aug-13 00:30N 40°45' W 073°57'3 5.6
2018-Aug-13 00:00N 40°42' W 073°59'1 2.3
2018-Aug-12 23:31N 40°42' W 074°00'2 4.3
2018-Aug-12 23:01N 40°43' W 073°58'2 3.3
2018-Aug-12 22:30N 40°45' W 073°57'2 4.9
2018-Aug-12 22:00N 40°43' W 073°58'1 2.9
2018-Aug-12 21:31N 40°42' W 074°00'2 4.4
2018-Aug-12 20:56N 40°44' W 073°58'0 0.4
2018-Aug-12 20:19N 40°44' W 073°58'2 5.0
2018-Aug-12 19:55N 40°42' W 073°60'0 0.0
2018-Aug-12 19:23N 40°42' W 073°60'2 4.9
2018-Aug-12 18:56N 40°44' W 073°58'0 0.6
2018-Aug-12 18:25N 40°44' W 073°58'2 4.6
2018-Aug-12 18:00N 40°42' W 073°60'0 0.9
2018-Aug-12 17:28N 40°42' W 074°00'2 4.5
2018-Aug-12 16:59N 40°43' W 073°58'1 1.0
2018-Aug-12 16:25N 40°44' W 073°58'2 4.3
2018-Aug-12 16:00N 40°42' W 073°59'2 3.8
2018-Aug-12 15:30N 40°43' W 074°01'3 0.2
2018-Aug-12 01:43N 40°46' W 074°01'416.5
2018-Aug-12 01:30N 40°42' W 074°01'3 4.8
2018-Aug-12 00:56N 40°43' W 073°58'1 3.2
2018-Aug-12 00:30N 40°45' W 073°58'2 4.6
2018-Aug-12 00:00N 40°43' W 073°58'2 3.2
2018-Aug-11 23:30N 40°42' W 074°00'2 4.3
2018-Aug-11 23:00N 40°43' W 073°58'2 3.2
2018-Aug-11 22:30N 40°45' W 073°57'3 5.4
2018-Aug-11 22:00N 40°42' W 073°59'1 2.5
2018-Aug-11 21:31N 40°42' W 074°00'2 4.2
2018-Aug-11 21:00N 40°43' W 073°58'2 3.1
2018-Aug-11 20:30N 40°45' W 073°58'3 5.4
2018-Aug-11 20:01N 40°42' W 073°59'1 2.3
2018-Aug-11 19:30N 40°42' W 074°00'2 4.2
2018-Aug-11 19:00N 40°43' W 073°58'2 3.4
2018-Aug-11 18:30N 40°45' W 073°57'3 5.5
2018-Aug-11 18:00N 40°42' W 073°59'1 1.7
2018-Aug-11 17:31N 40°42' W 074°00'2 4.1
2018-Aug-11 17:00N 40°43' W 073°58'1 2.9
2018-Aug-11 16:30N 40°45' W 073°58'3 6.0
2018-Aug-11 16:01N 40°42' W 073°60'2 4.4
2018-Aug-11 15:30N 40°44' W 074°01'2 0.1
2018-Aug-10 13:41N 40°46' W 074°00'1 2.8
2018-Aug-10 13:26N 40°47' W 074°01'1 1.6
2018-Aug-10 12:56N 40°46' W 074°00'1 1.3
2018-Aug-10 12:25N 40°46' W 074°00'1 1.3
2018-Aug-10 11:56N 40°46' W 074°00'1 1.6
2018-Aug-10 11:27N 40°47' W 074°01'1 2.0
2018-Aug-10 10:59N 40°46' W 074°00'0 0.0
2018-Aug-10 10:26N 40°46' W 074°00'1 0.1
2018-Aug-09 23:45N 40°47' W 074°01'0 0.0
2018-Aug-09 23:26N 40°47' W 074°00'1 2.1
2018-Aug-09 23:01N 40°46' W 074°00'1 1.6
2018-Aug-09 22:26N 40°47' W 074°01'1 2.1
2018-Aug-09 21:59N 40°46' W 074°00'1 1.7
2018-Aug-09 21:27N 40°47' W 074°00'1 2.0
2018-Aug-09 20:59N 40°46' W 074°00'1 1.8
2018-Aug-09 20:28N 40°47' W 074°01'  

Dump ship's entire track history